Koliganek Airport

About
Name: Koliganek Airport
Identifier:  KGK/PAJZ
Serves:  Koliganek, Alaska
Owner:  State of Alaska DOT&PF
Public/Private:  Public
Local Time:  25. Aug 01:41 AKDT
Description: Koliganek Airport is a state-owned, public-use airport located one nautical mile east of the central business district of Koliganek, in the Dillingham Census Area of the U.S. state of Alaska. Scheduled airline service to Dillingham Airport is provided by Peninsula Airways.
Source: Wikipedia
Location
Runways
Identifier Length (m/ft) Surface
9/27 3,000/3,000 Gravel
Flights per Day
0 flights
Distance: 103km (64mi)
Punctuality
0% (0 flights per day delayed)
Delay Average: 56 minutes
Current Weather
 17 C (Humidity: 93%)
  5kt (9km/h / 5mph) from 230°
  Broken clouds at 1,500 feet (457 meter)
  Overcast at 2,100 feet (640 meter)
  3km (2 mi.)
 Mist
 METAR PAJZ 142303Z 23005KT 2SM -RA BR BKN015 OVC021 17/16 A3032

Current Flights

Departures
Number Departure To Airline
Arrivals
Number Arrival From Airline

Current Delays

Departures
N/A
Arrivals
N/A

Destinations

Top Destinations
Airport Flights
per week
Seats
per week
  King Salmon (AKN) 0 - 0 0

Airlines & Planes

Top Airlines
Airline Flights
per Day
Seats
per Day
SkyBus International Airlines 0 -
Top Plane Types
Model Flights Seats
Beech B200 Super King Air 0.0/day - 0